sensor_id;sensor_type;location;lat;lon;timestamp;P1;durP1;ratioP1;P2;durP2;ratioP2
8480;SDS011;4277;51.354;6.740;2023-04-02T00:02:25;4.00;;;3.13;;
8480;SDS011;4277;51.354;6.740;2023-04-02T00:07:40;3.40;;;3.17;;
8480;SDS011;4277;51.354;6.740;2023-04-02T00:13:10;3.70;;;3.40;;
8480;SDS011;4277;51.354;6.740;2023-04-02T00:15:43;2.90;;;2.70;;
8480;SDS011;4277;51.354;6.740;2023-04-02T00:18:20;3.23;;;2.73;;
8480;SDS011;4277;51.354;6.740;2023-04-02T00:20:51;2.87;;;2.57;;
8480;SDS011;4277;51.354;6.740;2023-04-02T00:23:18;3.30;;;3.00;;
8480;SDS011;4277;51.354;6.740;2023-04-02T00:25:44;3.10;;;2.90;;
8480;SDS011;4277;51.354;6.740;2023-04-02T00:28:12;3.00;;;2.80;;
8480;SDS011;4277;51.354;6.740;2023-04-02T00:30:45;3.60;;;2.60;;
8480;SDS011;4277;51.354;6.740;2023-04-02T00:33:14;2.50;;;2.30;;
8480;SDS011;4277;51.354;6.740;2023-04-02T00:35:40;2.50;;;2.33;;
8480;SDS011;4277;51.354;6.740;2023-04-02T00:38:07;2.60;;;2.40;;
8480;SDS011;4277;51.354;6.740;2023-04-02T00:40:37;2.50;;;2.40;;
8480;SDS011;4277;51.354;6.740;2023-04-02T00:43:03;2.83;;;2.63;;
8480;SDS011;4277;51.354;6.740;2023-04-02T00:45:31;3.00;;;2.80;;
8480;SDS011;4277;51.354;6.740;2023-04-02T00:47:59;2.90;;;2.70;;
8480;SDS011;4277;51.354;6.740;2023-04-02T00:50:38;3.30;;;3.10;;
8480;SDS011;4277;51.354;6.740;2023-04-02T00:53:08;3.07;;;2.87;;
8480;SDS011;4277;51.354;6.740;2023-04-02T00:55:35;3.40;;;3.10;;
8480;SDS011;4277;51.354;6.740;2023-04-02T00:58:03;3.70;;;3.40;;
8480;SDS011;4277;51.354;6.740;2023-04-02T01:00:33;3.77;;;3.50;;
8480;SDS011;4277;51.354;6.740;2023-04-02T01:05:44;3.90;;;3.60;;
8480;SDS011;4277;51.354;6.740;2023-04-02T01:08:31;3.70;;;3.40;;
8480;SDS011;4277;51.354;6.740;2023-04-02T01:11:01;3.30;;;3.10;;
8480;SDS011;4277;51.354;6.740;2023-04-02T01:13:34;3.80;;;3.33;;
8480;SDS011;4277;51.354;6.740;2023-04-02T01:18:31;4.00;;;3.70;;
8480;SDS011;4277;51.354;6.740;2023-04-02T01:23:31;4.87;;;4.47;;
8480;SDS011;4277;51.354;6.740;2023-04-02T01:26:12;4.83;;;4.43;;
8480;SDS011;4277;51.354;6.740;2023-04-02T01:31:09;5.87;;;5.37;;
8480;SDS011;4277;51.354;6.740;2023-04-02T01:33:35;5.23;;;4.83;;
8480;SDS011;4277;51.354;6.740;2023-04-02T01:36:06;5.70;;;5.23;;
8480;SDS011;4277;51.354;6.740;2023-04-02T01:38:43;5.50;;;5.00;;
8480;SDS011;4277;51.354;6.740;2023-04-02T01:41:18;4.93;;;4.47;;
8480;SDS011;4277;51.354;6.740;2023-04-02T01:43:49;4.80;;;4.40;;
8480;SDS011;4277;51.354;6.740;2023-04-02T01:46:28;4.53;;;4.17;;
8480;SDS011;4277;51.354;6.740;2023-04-02T01:48:55;4.53;;;4.13;;
8480;SDS011;4277;51.354;6.740;2023-04-02T01:51:26;4.43;;;4.03;;
8480;SDS011;4277;51.354;6.740;2023-04-02T01:53:53;4.60;;;4.20;;
8480;SDS011;4277;51.354;6.740;2023-04-02T01:56:19;4.37;;;4.07;;
8480;SDS011;4277;51.354;6.740;2023-04-02T01:58:46;4.23;;;3.93;;
8480;SDS011;4277;51.354;6.740;2023-04-02T02:01:14;4.07;;;3.63;;
8480;SDS011;4277;51.354;6.740;2023-04-02T02:03:41;4.20;;;3.90;;
8480;SDS011;4277;51.354;6.740;2023-04-02T02:06:10;4.70;;;3.90;;
8480;SDS011;4277;51.354;6.740;2023-04-02T02:11:03;4.57;;;4.20;;
8480;SDS011;4277;51.354;6.740;2023-04-02T02:13:30;4.87;;;4.47;;
8480;SDS011;4277;51.354;6.740;2023-04-02T02:15:57;4.77;;;4.37;;
8480;SDS011;4277;51.354;6.740;2023-04-02T02:18:23;4.37;;;4.07;;
8480;SDS011;4277;51.354;6.740;2023-04-02T02:20:51;4.33;;;4.03;;
8480;SDS011;4277;51.354;6.740;2023-04-02T02:23:17;4.10;;;3.80;;
8480;SDS011;4277;51.354;6.740;2023-04-02T02:25:44;4.73;;;4.20;;
8480;SDS011;4277;51.354;6.740;2023-04-02T02:28:22;4.80;;;4.20;;
8480;SDS011;4277;51.354;6.740;2023-04-02T02:33:23;4.13;;;3.63;;
8480;SDS011;4277;51.354;6.740;2023-04-02T02:35:55;3.70;;;3.47;;
8480;SDS011;4277;51.354;6.740;2023-04-02T02:38:25;3.60;;;3.30;;
8480;SDS011;4277;51.354;6.740;2023-04-02T02:40:52;3.70;;;3.40;;
8480;SDS011;4277;51.354;6.740;2023-04-02T02:43:21;3.73;;;3.43;;
8480;SDS011;4277;51.354;6.740;2023-04-02T02:45:47;3.63;;;3.23;;
8480;SDS011;4277;51.354;6.740;2023-04-02T02:48:14;3.67;;;3.37;;
8480;SDS011;4277;51.354;6.740;2023-04-02T02:50:42;3.20;;;3.00;;
8480;SDS011;4277;51.354;6.740;2023-04-02T02:53:19;3.57;;;3.27;;
8480;SDS011;4277;51.354;6.740;2023-04-02T02:55:46;3.60;;;3.30;;
8480;SDS011;4277;51.354;6.740;2023-04-02T02:58:17;4.23;;;3.90;;
8480;SDS011;4277;51.354;6.740;2023-04-02T03:00:46;3.47;;;3.17;;
8480;SDS011;4277;51.354;6.740;2023-04-02T03:03:13;3.70;;;3.40;;
8480;SDS011;4277;51.354;6.740;2023-04-02T03:05:41;4.07;;;3.63;;
8480;SDS011;4277;51.354;6.740;2023-04-02T03:08:10;4.20;;;3.90;;
8480;SDS011;4277;51.354;6.740;2023-04-02T03:10:39;3.80;;;3.50;;
8480;SDS011;4277;51.354;6.740;2023-04-02T03:13:48;3.77;;;3.47;;
8480;SDS011;4277;51.354;6.740;2023-04-02T03:20:55;4.37;;;4.07;;
8480;SDS011;4277;51.354;6.740;2023-04-02T03:23:26;5.00;;;4.03;;
8480;SDS011;4277;51.354;6.740;2023-04-02T03:25:55;4.40;;;4.00;;
8480;SDS011;4277;51.354;6.740;2023-04-02T03:28:23;4.03;;;3.73;;
8480;SDS011;4277;51.354;6.740;2023-04-02T03:30:53;3.97;;;3.67;;
8480;SDS011;4277;51.354;6.740;2023-04-02T03:33:22;3.90;;;3.60;;
8480;SDS011;4277;51.354;6.740;2023-04-02T03:35:52;4.27;;;3.80;;
8480;SDS011;4277;51.354;6.740;2023-04-02T03:38:21;3.77;;;3.47;;
8480;SDS011;4277;51.354;6.740;2023-04-02T03:43:45;3.47;;;3.17;;
8480;SDS011;4277;51.354;6.740;2023-04-02T03:48:42;3.90;;;3.50;;
8480;SDS011;4277;51.354;6.740;2023-04-02T03:51:13;3.93;;;3.63;;
8480;SDS011;4277;51.354;6.740;2023-04-02T03:53:41;3.90;;;3.50;;
8480;SDS011;4277;51.354;6.740;2023-04-02T03:56:08;4.60;;;4.20;;
8480;SDS011;4277;51.354;6.740;2023-04-02T03:58:40;4.70;;;4.30;;
8480;SDS011;4277;51.354;6.740;2023-04-02T04:01:23;4.23;;;3.93;;
8480;SDS011;4277;51.354;6.740;2023-04-02T04:03:54;4.77;;;4.37;;
8480;SDS011;4277;51.354;6.740;2023-04-02T04:06:22;4.57;;;4.17;;
8480;SDS011;4277;51.354;6.740;2023-04-02T04:08:58;4.97;;;4.50;;
8480;SDS011;4277;51.354;6.740;2023-04-02T04:11:27;4.50;;;4.10;;
8480;SDS011;4277;51.354;6.740;2023-04-02T04:13:56;5.53;;;4.67;;
8480;SDS011;4277;51.354;6.740;2023-04-02T04:16:28;5.03;;;4.57;;
8480;SDS011;4277;51.354;6.740;2023-04-02T04:19:00;5.93;;;4.53;;
8480;SDS011;4277;51.354;6.740;2023-04-02T04:21:28;4.43;;;4.03;;
8480;SDS011;4277;51.354;6.740;2023-04-02T04:23:55;5.03;;;4.40;;
8480;SDS011;4277;51.354;6.740;2023-04-02T04:26:25;4.70;;;4.30;;
8480;SDS011;4277;51.354;6.740;2023-04-02T04:28:59;5.90;;;5.20;;
8480;SDS011;4277;51.354;6.740;2023-04-02T04:31:34;4.83;;;4.43;;
8480;SDS011;4277;51.354;6.740;2023-04-02T04:34:07;5.33;;;4.90;;
8480;SDS011;4277;51.354;6.740;2023-04-02T04:36:39;6.53;;;4.47;;
8480;SDS011;4277;51.354;6.740;2023-04-02T04:39:12;4.70;;;4.27;;
8480;SDS011;4277;51.354;6.740;2023-04-02T04:41:39;5.37;;;4.73;;
8480;SDS011;4277;51.354;6.740;2023-04-02T04:44:09;5.03;;;4.60;;
8480;SDS011;4277;51.354;6.740;2023-04-02T04:46:51;4.73;;;4.23;;
8480;SDS011;4277;51.354;6.740;2023-04-02T04:49:29;5.30;;;4.80;;
8480;SDS011;4277;51.354;6.740;2023-04-02T04:51:58;5.43;;;4.93;;
8480;SDS011;4277;51.354;6.740;2023-04-02T04:54:26;6.00;;;5.40;;
8480;SDS011;4277;51.354;6.740;2023-04-02T04:56:56;6.23;;;5.13;;
8480;SDS011;4277;51.354;6.740;2023-04-02T04:59:25;6.10;;;5.47;;
8480;SDS011;4277;51.354;6.740;2023-04-02T05:02:00;6.70;;;5.83;;
8480;SDS011;4277;51.354;6.740;2023-04-02T05:04:32;6.67;;;5.50;;
8480;SDS011;4277;51.354;6.740;2023-04-02T05:07:01;6.30;;;5.70;;
8480;SDS011;4277;51.354;6.740;2023-04-02T05:09:29;6.53;;;5.57;;
8480;SDS011;4277;51.354;6.740;2023-04-02T05:12:05;7.37;;;6.00;;
8480;SDS011;4277;51.354;6.740;2023-04-02T05:14:34;7.37;;;6.40;;
8480;SDS011;4277;51.354;6.740;2023-04-02T05:19:33;6.80;;;6.10;;
8480;SDS011;4277;51.354;6.740;2023-04-02T05:22:45;8.20;;;6.47;;
8480;SDS011;4277;51.354;6.740;2023-04-02T05:27:28;9.47;;;6.33;;
8480;SDS011;4277;51.354;6.740;2023-04-02T05:30:27;11.43;;;7.47;;
8480;SDS011;4277;51.354;6.740;2023-04-02T05:32:46;9.63;;;7.93;;
8480;SDS011;4277;51.354;6.740;2023-04-02T05:35:17;10.47;;;7.90;;
8480;SDS011;4277;51.354;6.740;2023-04-02T05:37:44;11.63;;;7.13;;
8480;SDS011;4277;51.354;6.740;2023-04-02T05:40:26;10.60;;;7.30;;
8480;SDS011;4277;51.354;6.740;2023-04-02T05:42:54;8.90;;;7.10;;
8480;SDS011;4277;51.354;6.740;2023-04-02T05:45:24;10.67;;;7.17;;
8480;SDS011;4277;51.354;6.740;2023-04-02T05:47:52;7.77;;;6.90;;
8480;SDS011;4277;51.354;6.740;2023-04-02T05:52:57;11.37;;;7.70;;
8480;SDS011;4277;51.354;6.740;2023-04-02T05:55:31;9.20;;;7.17;;
8480;SDS011;4277;51.354;6.740;2023-04-02T05:58:05;11.07;;;7.60;;
8480;SDS011;4277;51.354;6.740;2023-04-02T06:03:03;10.47;;;7.87;;
8480;SDS011;4277;51.354;6.740;2023-04-02T06:05:35;10.40;;;7.30;;
8480;SDS011;4277;51.354;6.740;2023-04-02T06:08:22;8.57;;;7.67;;
8480;SDS011;4277;51.354;6.740;2023-04-02T06:11:35;9.63;;;7.00;;
8480;SDS011;4277;51.354;6.740;2023-04-02T06:13:38;9.00;;;7.50;;
8480;SDS011;4277;51.354;6.740;2023-04-02T06:16:05;8.13;;;6.83;;
8480;SDS011;4277;51.354;6.740;2023-04-02T06:18:32;9.57;;;8.00;;
8480;SDS011;4277;51.354;6.740;2023-04-02T06:20:59;10.47;;;7.93;;
8480;SDS011;4277;51.354;6.740;2023-04-02T06:26:17;9.27;;;7.37;;
8480;SDS011;4277;51.354;6.740;2023-04-02T06:28:45;10.77;;;7.37;;
8480;SDS011;4277;51.354;6.740;2023-04-02T06:33:50;8.47;;;6.60;;
8480;SDS011;4277;51.354;6.740;2023-04-02T06:36:18;9.87;;;7.13;;
8480;SDS011;4277;51.354;6.740;2023-04-02T06:38:45;10.03;;;7.00;;
8480;SDS011;4277;51.354;6.740;2023-04-02T06:41:14;11.13;;;7.13;;
8480;SDS011;4277;51.354;6.740;2023-04-02T06:46:10;9.47;;;7.67;;
8480;SDS011;4277;51.354;6.740;2023-04-02T06:48:38;9.80;;;6.87;;
8480;SDS011;4277;51.354;6.740;2023-04-02T06:51:06;9.70;;;6.77;;
8480;SDS011;4277;51.354;6.740;2023-04-02T06:53:34;8.53;;;6.73;;
8480;SDS011;4277;51.354;6.740;2023-04-02T06:56:19;8.70;;;7.07;;
8480;SDS011;4277;51.354;6.740;2023-04-02T06:58:46;9.20;;;7.30;;
8480;SDS011;4277;51.354;6.740;2023-04-02T07:01:21;9.73;;;6.93;;
8480;SDS011;4277;51.354;6.740;2023-04-02T07:03:48;10.43;;;7.33;;
8480;SDS011;4277;51.354;6.740;2023-04-02T07:06:15;7.80;;;6.33;;
8480;SDS011;4277;51.354;6.740;2023-04-02T07:08:41;8.37;;;6.43;;
8480;SDS011;4277;51.354;6.740;2023-04-02T07:11:09;8.07;;;6.30;;
8480;SDS011;4277;51.354;6.740;2023-04-02T07:13:37;8.63;;;6.10;;
8480;SDS011;4277;51.354;6.740;2023-04-02T07:16:03;8.43;;;6.87;;
8480;SDS011;4277;51.354;6.740;2023-04-02T07:18:30;8.33;;;6.20;;
8480;SDS011;4277;51.354;6.740;2023-04-02T07:20:57;8.50;;;6.20;;
8480;SDS011;4277;51.354;6.740;2023-04-02T07:23:23;7.57;;;5.27;;
8480;SDS011;4277;51.354;6.740;2023-04-02T07:25:50;8.50;;;5.50;;
8480;SDS011;4277;51.354;6.740;2023-04-02T07:28:16;7.20;;;5.30;;
8480;SDS011;4277;51.354;6.740;2023-04-02T07:30:42;8.03;;;5.43;;
8480;SDS011;4277;51.354;6.740;2023-04-02T07:33:11;8.13;;;5.10;;
8480;SDS011;4277;51.354;6.740;2023-04-02T07:35:37;7.67;;;5.53;;
8480;SDS011;4277;51.354;6.740;2023-04-02T07:38:03;6.70;;;4.77;;
8480;SDS011;4277;51.354;6.740;2023-04-02T07:40:29;7.53;;;5.63;;
8480;SDS011;4277;51.354;6.740;2023-04-02T07:42:55;8.47;;;5.77;;
8480;SDS011;4277;51.354;6.740;2023-04-02T07:45:21;10.67;;;6.20;;
8480;SDS011;4277;51.354;6.740;2023-04-02T07:47:47;8.17;;;5.53;;
8480;SDS011;4277;51.354;6.740;2023-04-02T07:50:13;7.33;;;6.17;;
8480;SDS011;4277;51.354;6.740;2023-04-02T07:52:40;7.50;;;5.40;;
8480;SDS011;4277;51.354;6.740;2023-04-02T07:55:06;6.83;;;5.20;;
8480;SDS011;4277;51.354;6.740;2023-04-02T07:57:36;7.27;;;5.20;;
8480;SDS011;4277;51.354;6.740;2023-04-02T08:00:02;7.80;;;5.10;;
8480;SDS011;4277;51.354;6.740;2023-04-02T08:02:29;6.30;;;5.00;;
8480;SDS011;4277;51.354;6.740;2023-04-02T08:04:55;6.63;;;5.40;;
8480;SDS011;4277;51.354;6.740;2023-04-02T08:07:21;9.43;;;5.20;;
8480;SDS011;4277;51.354;6.740;2023-04-02T08:09:47;7.10;;;4.97;;
8480;SDS011;4277;51.354;6.740;2023-04-02T08:12:13;6.40;;;4.90;;
8480;SDS011;4277;51.354;6.740;2023-04-02T08:14:39;6.17;;;4.80;;
8480;SDS011;4277;51.354;6.740;2023-04-02T08:17:05;7.83;;;4.87;;
8480;SDS011;4277;51.354;6.740;2023-04-02T08:19:31;6.47;;;4.87;;
8480;SDS011;4277;51.354;6.740;2023-04-02T08:21:58;7.03;;;4.60;;
8480;SDS011;4277;51.354;6.740;2023-04-02T08:24:24;7.23;;;4.67;;
8480;SDS011;4277;51.354;6.740;2023-04-02T08:26:51;8.00;;;4.67;;
8480;SDS011;4277;51.354;6.740;2023-04-02T08:29:18;6.47;;;4.53;;
8480;SDS011;4277;51.354;6.740;2023-04-02T08:31:44;5.57;;;4.37;;
8480;SDS011;4277;51.354;6.740;2023-04-02T08:34:10;7.03;;;4.10;;
8480;SDS011;4277;51.354;6.740;2023-04-02T08:36:36;6.67;;;3.90;;
8480;SDS011;4277;51.354;6.740;2023-04-02T08:39:04;5.23;;;3.93;;
8480;SDS011;4277;51.354;6.740;2023-04-02T08:41:34;6.17;;;3.83;;
8480;SDS011;4277;51.354;6.740;2023-04-02T08:46:49;5.30;;;4.00;;
8480;SDS011;4277;51.354;6.740;2023-04-02T08:49:18;5.63;;;3.90;;
8480;SDS011;4277;51.354;6.740;2023-04-02T08:51:46;7.37;;;4.43;;
8480;SDS011;4277;51.354;6.740;2023-04-02T08:56:50;6.90;;;3.77;;
8480;SDS011;4277;51.354;6.740;2023-04-02T09:04:16;6.53;;;3.80;;
8480;SDS011;4277;51.354;6.740;2023-04-02T09:06:43;5.37;;;3.43;;
8480;SDS011;4277;51.354;6.740;2023-04-02T09:09:10;8.03;;;4.00;;
8480;SDS011;4277;51.354;6.740;2023-04-02T09:11:43;5.37;;;3.70;;
8480;SDS011;4277;51.354;6.740;2023-04-02T09:17:04;5.87;;;3.93;;
8480;SDS011;4277;51.354;6.740;2023-04-02T09:19:37;4.43;;;3.40;;
8480;SDS011;4277;51.354;6.740;2023-04-02T09:22:06;7.30;;;3.33;;
8480;SDS011;4277;51.354;6.740;2023-04-02T09:24:33;4.83;;;3.37;;
8480;SDS011;4277;51.354;6.740;2023-04-02T09:27:00;4.30;;;3.13;;
8480;SDS011;4277;51.354;6.740;2023-04-02T09:31:54;4.97;;;3.13;;
8480;SDS011;4277;51.354;6.740;2023-04-02T09:34:33;4.90;;;3.27;;
8480;SDS011;4277;51.354;6.740;2023-04-02T09:37:05;5.60;;;3.30;;
8480;SDS011;4277;51.354;6.740;2023-04-02T09:39:32;4.27;;;2.90;;
8480;SDS011;4277;51.354;6.740;2023-04-02T09:41:59;4.73;;;3.10;;
8480;SDS011;4277;51.354;6.740;2023-04-02T09:44:29;5.10;;;3.00;;
8480;SDS011;4277;51.354;6.740;2023-04-02T09:46:56;3.23;;;2.67;;
8480;SDS011;4277;51.354;6.740;2023-04-02T09:49:24;5.03;;;2.80;;
8480;SDS011;4277;51.354;6.740;2023-04-02T09:54:35;4.03;;;2.87;;
8480;SDS011;4277;51.354;6.740;2023-04-02T09:57:15;5.30;;;2.87;;
8480;SDS011;4277;51.354;6.740;2023-04-02T09:59:42;4.57;;;2.90;;
8480;SDS011;4277;51.354;6.740;2023-04-02T10:02:21;4.10;;;3.00;;
8480;SDS011;4277;51.354;6.740;2023-04-02T10:04:48;6.10;;;3.10;;
8480;SDS011;4277;51.354;6.740;2023-04-02T10:10:11;4.43;;;2.83;;
8480;SDS011;4277;51.354;6.740;2023-04-02T10:12:40;5.40;;;2.73;;
8480;SDS011;4277;51.354;6.740;2023-04-02T10:15:07;4.80;;;2.70;;
8480;SDS011;4277;51.354;6.740;2023-04-02T10:17:38;4.87;;;2.70;;
8480;SDS011;4277;51.354;6.740;2023-04-02T10:20:06;5.60;;;3.23;;
8480;SDS011;4277;51.354;6.740;2023-04-02T10:22:36;3.60;;;2.80;;
8480;SDS011;4277;51.354;6.740;2023-04-02T10:25:05;4.40;;;3.13;;
8480;SDS011;4277;51.354;6.740;2023-04-02T10:27:50;5.97;;;2.70;;
8480;SDS011;4277;51.354;6.740;2023-04-02T10:33:17;4.83;;;2.83;;
8480;SDS011;4277;51.354;6.740;2023-04-02T10:35:49;4.80;;;2.83;;
8480;SDS011;4277;51.354;6.740;2023-04-02T10:40:46;2.90;;;2.60;;
8480;SDS011;4277;51.354;6.740;2023-04-02T10:48:42;4.50;;;2.60;;
8480;SDS011;4277;51.354;6.740;2023-04-02T10:53:52;8.17;;;3.43;;
8480;SDS011;4277;51.354;6.740;2023-04-02T10:56:22;7.00;;;3.30;;
8480;SDS011;4277;51.354;6.740;2023-04-02T10:58:54;4.83;;;2.60;;
8480;SDS011;4277;51.354;6.740;2023-04-02T11:01:25;3.10;;;2.60;;
8480;SDS011;4277;51.354;6.740;2023-04-02T11:03:58;5.73;;;2.83;;
8480;SDS011;4277;51.354;6.740;2023-04-02T11:06:30;4.10;;;3.17;;
8480;SDS011;4277;51.354;6.740;2023-04-02T11:08:59;3.90;;;2.93;;
8480;SDS011;4277;51.354;6.740;2023-04-02T11:11:26;4.77;;;2.67;;
8480;SDS011;4277;51.354;6.740;2023-04-02T11:13:58;3.70;;;2.70;;
8480;SDS011;4277;51.354;6.740;2023-04-02T11:16:25;3.93;;;3.03;;
8480;SDS011;4277;51.354;6.740;2023-04-02T11:21:49;6.43;;;2.90;;
8480;SDS011;4277;51.354;6.740;2023-04-02T11:26:48;6.33;;;2.80;;
8480;SDS011;4277;51.354;6.740;2023-04-02T11:29:18;4.67;;;2.77;;
8480;SDS011;4277;51.354;6.740;2023-04-02T11:31:45;3.83;;;2.97;;
8480;SDS011;4277;51.354;6.740;2023-04-02T11:34:12;6.03;;;2.87;;
8480;SDS011;4277;51.354;6.740;2023-04-02T11:42:03;4.33;;;3.20;;
8480;SDS011;4277;51.354;6.740;2023-04-02T11:44:30;4.57;;;2.90;;
8480;SDS011;4277;51.354;6.740;2023-04-02T11:52:25;3.50;;;3.00;;
8480;SDS011;4277;51.354;6.740;2023-04-02T11:54:55;4.80;;;3.47;;
8480;SDS011;4277;51.354;6.740;2023-04-02T11:57:25;3.33;;;2.63;;
8480;SDS011;4277;51.354;6.740;2023-04-02T12:04:58;4.67;;;2.90;;
8480;SDS011;4277;51.354;6.740;2023-04-02T12:07:48;3.57;;;2.90;;
8480;SDS011;4277;51.354;6.740;2023-04-02T12:10:22;3.53;;;2.77;;
8480;SDS011;4277;51.354;6.740;2023-04-02T12:12:49;2.83;;;2.37;;
8480;SDS011;4277;51.354;6.740;2023-04-02T12:15:32;4.40;;;2.60;;
8480;SDS011;4277;51.354;6.740;2023-04-02T12:18:04;3.23;;;2.77;;
8480;SDS011;4277;51.354;6.740;2023-04-02T12:20:30;4.03;;;2.63;;
8480;SDS011;4277;51.354;6.740;2023-04-02T12:22:56;2.83;;;2.40;;
8480;SDS011;4277;51.354;6.740;2023-04-02T12:25:27;3.63;;;2.70;;
8480;SDS011;4277;51.354;6.740;2023-04-02T12:30:38;5.13;;;2.43;;
8480;SDS011;4277;51.354;6.740;2023-04-02T12:35:50;4.60;;;2.37;;
8480;SDS011;4277;51.354;6.740;2023-04-02T12:38:28;2.53;;;2.33;;
8480;SDS011;4277;51.354;6.740;2023-04-02T12:40:58;2.47;;;2.27;;
8480;SDS011;4277;51.354;6.740;2023-04-02T12:43:25;3.33;;;2.67;;
8480;SDS011;4277;51.354;6.740;2023-04-02T12:45:55;2.90;;;1.97;;
8480;SDS011;4277;51.354;6.740;2023-04-02T12:48:22;3.87;;;2.03;;
8480;SDS011;4277;51.354;6.740;2023-04-02T12:50:48;3.50;;;2.43;;
8480;SDS011;4277;51.354;6.740;2023-04-02T12:53:19;3.47;;;2.17;;
8480;SDS011;4277;51.354;6.740;2023-04-02T12:55:46;3.50;;;2.37;;
8480;SDS011;4277;51.354;6.740;2023-04-02T13:01:15;3.30;;;1.80;;
8480;SDS011;4277;51.354;6.740;2023-04-02T13:06:30;2.80;;;2.47;;
8480;SDS011;4277;51.354;6.740;2023-04-02T13:08:56;2.33;;;2.00;;
8480;SDS011;4277;51.354;6.740;2023-04-02T13:11:31;2.40;;;2.00;;
8480;SDS011;4277;51.354;6.740;2023-04-02T13:13:59;2.97;;;1.90;;
8480;SDS011;4277;51.354;6.740;2023-04-02T13:16:26;2.20;;;2.00;;
8480;SDS011;4277;51.354;6.740;2023-04-02T13:19:07;2.90;;;1.90;;
8480;SDS011;4277;51.354;6.740;2023-04-02T13:21:33;2.63;;;2.10;;
8480;SDS011;4277;51.354;6.740;2023-04-02T13:23:59;4.10;;;2.00;;
8480;SDS011;4277;51.354;6.740;2023-04-02T13:26:26;2.40;;;1.90;;
8480;SDS011;4277;51.354;6.740;2023-04-02T13:31:22;3.10;;;1.90;;
8480;SDS011;4277;51.354;6.740;2023-04-02T13:33:48;3.13;;;2.10;;
8480;SDS011;4277;51.354;6.740;2023-04-02T13:36:14;2.60;;;2.00;;
8480;SDS011;4277;51.354;6.740;2023-04-02T13:38:40;2.33;;;1.80;;
8480;SDS011;4277;51.354;6.740;2023-04-02T13:41:25;2.90;;;1.87;;
8480;SDS011;4277;51.354;6.740;2023-04-02T13:43:55;3.93;;;1.90;;
8480;SDS011;4277;51.354;6.740;2023-04-02T13:46:26;2.40;;;2.10;;
8480;SDS011;4277;51.354;6.740;2023-04-02T13:48:52;1.90;;;1.60;;
8480;SDS011;4277;51.354;6.740;2023-04-02T13:51:20;2.63;;;1.90;;
8480;SDS011;4277;51.354;6.740;2023-04-02T13:53:47;2.20;;;2.00;;
8480;SDS011;4277;51.354;6.740;2023-04-02T13:56:16;2.97;;;1.97;;
8480;SDS011;4277;51.354;6.740;2023-04-02T13:58:43;2.97;;;2.10;;
8480;SDS011;4277;51.354;6.740;2023-04-02T14:01:09;3.83;;;2.10;;
8480;SDS011;4277;51.354;6.740;2023-04-02T14:03:35;2.60;;;2.03;;
8480;SDS011;4277;51.354;6.740;2023-04-02T14:06:07;2.37;;;1.93;;
8480;SDS011;4277;51.354;6.740;2023-04-02T14:24:43;1.90;;;1.70;;
8480;SDS011;4277;51.354;6.740;2023-04-02T14:27:17;2.93;;;1.83;;
8480;SDS011;4277;51.354;6.740;2023-04-02T14:29:47;2.60;;;1.90;;
8480;SDS011;4277;51.354;6.740;2023-04-02T14:37:38;2.60;;;1.87;;
8480;SDS011;4277;51.354;6.740;2023-04-02T14:40:09;2.27;;;1.80;;
8480;SDS011;4277;51.354;6.740;2023-04-02T14:42:39;2.40;;;1.80;;
8480;SDS011;4277;51.354;6.740;2023-04-02T14:47:51;2.67;;;2.10;;
8480;SDS011;4277;51.354;6.740;2023-04-02T14:50:21;3.30;;;2.30;;
8480;SDS011;4277;51.354;6.740;2023-04-02T14:52:51;3.80;;;2.00;;
8480;SDS011;4277;51.354;6.740;2023-04-02T14:57:50;2.27;;;1.77;;
8480;SDS011;4277;51.354;6.740;2023-04-02T15:07:58;3.00;;;1.90;;
8480;SDS011;4277;51.354;6.740;2023-04-02T15:13:13;2.80;;;1.90;;
8480;SDS011;4277;51.354;6.740;2023-04-02T15:15:51;4.10;;;1.80;;
8480;SDS011;4277;51.354;6.740;2023-04-02T15:18:20;2.87;;;1.87;;
8480;SDS011;4277;51.354;6.740;2023-04-02T15:23:24;4.00;;;2.07;;
8480;SDS011;4277;51.354;6.740;2023-04-02T15:25:59;2.73;;;1.90;;
8480;SDS011;4277;51.354;6.740;2023-04-02T15:28:28;4.07;;;1.90;;
8480;SDS011;4277;51.354;6.740;2023-04-02T15:30:57;3.00;;;2.00;;
8480;SDS011;4277;51.354;6.740;2023-04-02T15:36:14;3.33;;;1.90;;
8480;SDS011;4277;51.354;6.740;2023-04-02T15:38:43;2.73;;;1.90;;
8480;SDS011;4277;51.354;6.740;2023-04-02T15:41:13;2.87;;;2.00;;
8480;SDS011;4277;51.354;6.740;2023-04-02T15:44:03;2.60;;;1.90;;
8480;SDS011;4277;51.354;6.740;2023-04-02T15:54:26;2.97;;;2.13;;
8480;SDS011;4277;51.354;6.740;2023-04-02T15:57:09;3.90;;;2.30;;
8480;SDS011;4277;51.354;6.740;2023-04-02T16:05:11;3.17;;;2.10;;
8480;SDS011;4277;51.354;6.740;2023-04-02T16:10:27;3.67;;;2.20;;
8480;SDS011;4277;51.354;6.740;2023-04-02T16:12:56;4.93;;;1.97;;
8480;SDS011;4277;51.354;6.740;2023-04-02T16:15:23;4.47;;;2.40;;
8480;SDS011;4277;51.354;6.740;2023-04-02T16:17:55;3.13;;;2.00;;
8480;SDS011;4277;51.354;6.740;2023-04-02T16:20:23;2.43;;;1.83;;
8480;SDS011;4277;51.354;6.740;2023-04-02T16:22:55;4.20;;;2.23;;
8480;SDS011;4277;51.354;6.740;2023-04-02T16:25:22;2.57;;;1.90;;
8480;SDS011;4277;51.354;6.740;2023-04-02T16:30:52;5.03;;;2.07;;
8480;SDS011;4277;51.354;6.740;2023-04-02T16:33:37;3.07;;;2.20;;
8480;SDS011;4277;51.354;6.740;2023-04-02T16:36:18;4.23;;;2.20;;
8480;SDS011;4277;51.354;6.740;2023-04-02T16:41:24;2.87;;;2.17;;
8480;SDS011;4277;51.354;6.740;2023-04-02T16:44:01;4.93;;;2.73;;
8480;SDS011;4277;51.354;6.740;2023-04-02T16:46:50;2.80;;;2.00;;
8480;SDS011;4277;51.354;6.740;2023-04-02T16:59:56;4.17;;;2.40;;
8480;SDS011;4277;51.354;6.740;2023-04-02T17:10:47;3.40;;;2.10;;
8480;SDS011;4277;51.354;6.740;2023-04-02T17:13:23;4.23;;;2.30;;
8480;SDS011;4277;51.354;6.740;2023-04-02T17:18:28;2.53;;;1.90;;
8480;SDS011;4277;51.354;6.740;2023-04-02T17:20:56;3.20;;;2.10;;
8480;SDS011;4277;51.354;6.740;2023-04-02T17:23:23;4.23;;;2.20;;
8480;SDS011;4277;51.354;6.740;2023-04-02T17:25:52;2.67;;;1.93;;
8480;SDS011;4277;51.354;6.740;2023-04-02T17:28:21;2.53;;;1.90;;
8480;SDS011;4277;51.354;6.740;2023-04-02T17:30:49;2.93;;;2.10;;
8480;SDS011;4277;51.354;6.740;2023-04-02T17:33:17;2.77;;;2.03;;
8480;SDS011;4277;51.354;6.740;2023-04-02T17:36:03;3.40;;;2.17;;
8480;SDS011;4277;51.354;6.740;2023-04-02T17:38:39;3.43;;;2.13;;
8480;SDS011;4277;51.354;6.740;2023-04-02T17:49:05;3.67;;;2.20;;
8480;SDS011;4277;51.354;6.740;2023-04-02T17:51:34;5.37;;;2.40;;
8480;SDS011;4277;51.354;6.740;2023-04-02T17:56:51;3.70;;;2.60;;
8480;SDS011;4277;51.354;6.740;2023-04-02T17:59:26;3.80;;;2.30;;
8480;SDS011;4277;51.354;6.740;2023-04-02T18:04:28;4.80;;;2.23;;
8480;SDS011;4277;51.354;6.740;2023-04-02T18:07:17;3.57;;;2.80;;
8480;SDS011;4277;51.354;6.740;2023-04-02T18:19:49;3.23;;;2.87;;
8480;SDS011;4277;51.354;6.740;2023-04-02T18:22:25;4.83;;;3.03;;
8480;SDS011;4277;51.354;6.740;2023-04-02T18:27:44;3.93;;;3.40;;
8480;SDS011;4277;51.354;6.740;2023-04-02T18:30:17;4.00;;;3.13;;
8480;SDS011;4277;51.354;6.740;2023-04-02T18:38:30;4.20;;;2.60;;
8480;SDS011;4277;51.354;6.740;2023-04-02T18:46:57;4.27;;;2.70;;
8480;SDS011;4277;51.354;6.740;2023-04-02T18:49:44;3.07;;;2.77;;
8480;SDS011;4277;51.354;6.740;2023-04-02T18:51:43;4.53;;;2.63;;
8480;SDS011;4277;51.354;6.740;2023-04-02T18:56:56;2.87;;;2.67;;
8480;SDS011;4277;51.354;6.740;2023-04-02T19:01:48;4.63;;;3.27;;
8480;SDS011;4277;51.354;6.740;2023-04-02T19:04:36;4.23;;;3.00;;
8480;SDS011;4277;51.354;6.740;2023-04-02T19:07:03;3.13;;;2.70;;
8480;SDS011;4277;51.354;6.740;2023-04-02T19:09:30;3.37;;;2.57;;
8480;SDS011;4277;51.354;6.740;2023-04-02T19:11:58;5.43;;;2.77;;
8480;SDS011;4277;51.354;6.740;2023-04-02T19:14:24;3.23;;;2.93;;
8480;SDS011;4277;51.354;6.740;2023-04-02T19:19:24;3.80;;;2.90;;
8480;SDS011;4277;51.354;6.740;2023-04-02T19:24:21;2.97;;;2.37;;
8480;SDS011;4277;51.354;6.740;2023-04-02T19:32:08;2.87;;;2.30;;
8480;SDS011;4277;51.354;6.740;2023-04-02T19:34:45;4.33;;;2.67;;
8480;SDS011;4277;51.354;6.740;2023-04-02T19:37:14;4.07;;;2.43;;
8480;SDS011;4277;51.354;6.740;2023-04-02T19:44:55;3.80;;;2.47;;
8480;SDS011;4277;51.354;6.740;2023-04-02T19:47:21;2.43;;;2.23;;
8480;SDS011;4277;51.354;6.740;2023-04-02T19:49:48;3.17;;;2.10;;
8480;SDS011;4277;51.354;6.740;2023-04-02T19:52:14;4.93;;;2.67;;
8480;SDS011;4277;51.354;6.740;2023-04-02T19:54:40;2.57;;;2.37;;
8480;SDS011;4277;51.354;6.740;2023-04-02T19:57:06;2.40;;;2.20;;